createdAt,value
2022-12-08T00:00:50.736Z,77.4725735723701
2022-12-08T00:05:56.054Z,77.61326406269114
2022-12-08T00:11:01.222Z,77.67684476665688
2022-12-08T00:16:06.508Z,77.688828029137
2022-12-08T00:21:11.719Z,77.70375130669564
2022-12-08T00:26:16.943Z,77.28520208457185
2022-12-08T00:31:22.260Z,76.55191138347072
2022-12-08T00:36:27.395Z,76.45365207133203
2022-12-08T00:41:32.653Z,76.27359371537196
2022-12-08T00:46:37.883Z,79.05850595576189
2022-12-08T00:51:43.150Z,78.03348671493995
2022-12-08T00:56:53.364Z,76.55199105893867
2022-12-08T01:01:58.592Z,76.44613490803815
2022-12-08T01:07:03.812Z,76.32491401063857
2022-12-08T01:12:09.064Z,76.4595694814312
2022-12-08T01:17:14.416Z,76.45462364296567
2022-12-08T01:22:19.557Z,76.71178323419066
2022-12-08T01:27:24.765Z,76.85425098779905
2022-12-08T01:32:30.040Z,77.18717281793518
2022-12-08T01:37:35.404Z,77.10779659216968
2022-12-08T01:42:49.511Z,77.20968485899505
2022-12-08T01:47:57.760Z,77.41013020877926
2022-12-08T01:53:09.897Z,77.4464164890063
2022-12-08T01:58:19.143Z,78.03641701701616
2022-12-08T02:03:29.361Z,79.20356709882182
2022-12-08T02:08:36.595Z,79.32903053479512
2022-12-08T02:13:45.831Z,79.50074013186757
2022-12-08T02:19:29.306Z,80.19031331947029
2022-12-08T02:24:47.186Z,79.31895974804267
2022-12-08T02:30:07.629Z,79.37896918884273
2022-12-08T02:35:19.572Z,80.46820820543117
2022-12-08T02:40:31.804Z,81.05724263765399
2022-12-08T02:45:44.996Z,80.99492611734627
2022-12-08T02:50:51.242Z,81.07301371580942
2022-12-08T02:56:03.541Z,81.3709735125077
2022-12-08T03:01:19.755Z,81.36325634278298
2022-12-08T03:06:32.902Z,81.30644408314488
2022-12-08T03:11:48.165Z,81.25465352221954
2022-12-08T03:16:57.340Z,81.04488350654566
2022-12-08T03:22:05.575Z,80.69585327594628
2022-12-08T03:27:15.816Z,80.70727712981379
2022-12-08T03:32:27.050Z,80.22682175732844
2022-12-08T03:37:35.281Z,80.3665833802761
2022-12-08T03:42:40.472Z,80.27481617223052
2022-12-08T03:47:45.731Z,79.84085421096933
2022-12-08T03:52:50.971Z,79.74502262166531
2022-12-08T03:57:56.231Z,79.4714076222038
2022-12-08T04:03:01.534Z,79.40746632056944
2022-12-08T04:08:06.739Z,78.54870780779328
2022-12-08T04:13:11.889Z,78.67764015933956
2022-12-08T04:18:17.167Z,78.34038507810887
2022-12-08T04:23:22.396Z,78.91347268807174
2022-12-08T04:28:27.625Z,78.78238793490559
2022-12-08T04:33:32.852Z,78.40755314781889
2022-12-08T04:38:38.091Z,78.24316244724409
2022-12-08T04:43:43.338Z,78.08939036931065
2022-12-08T04:48:48.586Z,78.07345589291238
2022-12-08T04:53:53.820Z,78.35832823041946
2022-12-08T04:58:59.058Z,77.73284397397397
2022-12-08T05:04:04.334Z,79.21634527089597
2022-12-08T05:09:09.521Z,78.26887414823071
2022-12-08T05:14:15.732Z,79.86129192363592
2022-12-08T05:19:20.972Z,79.95105463973353
2022-12-08T05:24:26.215Z,80.5332113717842
2022-12-08T05:29:31.482Z,80.66323180922201
2022-12-08T05:34:36.699Z,80.50190950415555
2022-12-08T05:39:47.936Z,80.40439527872554
2022-12-08T05:44:53.137Z,80.30669948718523
2022-12-08T05:49:58.414Z,80.29895781452655
2022-12-08T05:55:03.652Z,80.26699315199357
2022-12-08T06:00:09.884Z,79.6899390106784
2022-12-08T06:05:15.114Z,79.73824803109598
2022-12-08T06:10:20.308Z,79.67486490316347
2022-12-08T06:15:25.613Z,78.71908126360196
2022-12-08T06:20:30.833Z,79.35148518927147
2022-12-08T06:25:36.081Z,78.64071612121609
2022-12-08T06:30:41.311Z,78.91228889518875
2022-12-08T06:35:46.531Z,79.0911990773761
2022-12-08T06:40:53.785Z,78.668913206258
2022-12-08T06:45:59.010Z,79.07940110183753
2022-12-08T06:51:07.223Z,79.01141282015836
2022-12-08T06:56:16.480Z,78.6326385403506
2022-12-08T07:01:21.804Z,79.16880416842184
2022-12-08T07:06:27.902Z,78.57098554147304
2022-12-08T07:11:39.183Z,78.46400235434027
2022-12-08T07:16:44.570Z,79.04151212544556
2022-12-08T07:21:49.608Z,77.9193809222496
2022-12-08T07:26:54.862Z,79.00943275862083
2022-12-08T07:32:00.078Z,78.04251608140562
2022-12-08T07:37:05.330Z,78.6297112025834
2022-12-08T07:42:10.586Z,79.10727944616178
2022-12-08T07:47:15.813Z,78.58931205843692
2022-12-08T07:52:22.027Z,78.10690793700782
2022-12-08T07:57:30.280Z,77.24961050022351
2022-12-08T08:02:35.621Z,78.05179047022266
2022-12-08T08:07:41.803Z,77.84659369867009
2022-12-08T08:12:46.977Z,76.8348281171492
2022-12-08T08:17:53.256Z,78.05014118317075
2022-12-08T08:22:58.433Z,77.04388251226723
2022-12-08T08:28:03.710Z,77.64147011451549
2022-12-08T08:33:08.963Z,76.99776512654356
2022-12-08T08:38:14.186Z,75.67966741536038
2022-12-08T08:43:19.416Z,74.88201005210985
2022-12-08T08:48:24.636Z,76.14585467431802
2022-12-08T08:53:29.886Z,75.90365702681589
2022-12-08T08:58:35.118Z,75.54676277390642
2022-12-08T09:03:40.319Z,75.513210117287
2022-12-08T09:08:45.596Z,75.58588815632751
2022-12-08T09:13:50.844Z,76.08962040870102
2022-12-08T09:18:56.040Z,76.20217219278588
2022-12-08T09:24:01.318Z,74.85212525893148
2022-12-08T09:29:06.595Z,74.9917611905479
2022-12-08T09:34:11.785Z,76.45764334208657
2022-12-08T09:39:17.046Z,75.30544761635252
2022-12-08T09:44:37.217Z,75.2822175133503
2022-12-08T09:49:49.477Z,72.72705929942994
2022-12-08T09:54:59.626Z,74.35256958117928
2022-12-08T10:00:07.259Z,72.70998149847846
2022-12-08T10:05:15.236Z,71.26209319248639
2022-12-08T10:10:30.317Z,69.57984675245402
2022-12-08T10:15:42.633Z,68.12993880518697
2022-12-08T10:20:49.769Z,69.76937315224902
2022-12-08T10:26:06.980Z,69.8644420745407
2022-12-08T10:31:16.331Z,70.20007582670085
2022-12-08T10:36:22.448Z,69.53213127814172
2022-12-08T10:41:31.691Z,68.9619133198593
2022-12-08T10:46:41.029Z,70.19743091193654
2022-12-08T10:51:54.130Z,69.02665490130946
2022-12-08T10:57:00.400Z,72.37946703866365
2022-12-08T11:07:22.816Z,67.35270681887349
2022-12-08T11:12:30.049Z,66.79104150795219
2022-12-08T11:17:40.273Z,66.29439322175664
2022-12-08T11:22:54.480Z,66.77238524833817
2022-12-08T11:28:00.729Z,67.1433677172777
2022-12-08T11:33:12.908Z,67.70488323739198
2022-12-08T11:38:21.887Z,66.83408304929547
2022-12-08T11:43:38.373Z,66.46212563358627
2022-12-08T11:48:50.583Z,66.35884186045456
2022-12-08T11:54:05.851Z,67.49212096270087
2022-12-08T11:59:20.000Z,67.20040575602619
2022-12-08T12:04:32.246Z,67.15500204581491
2022-12-08T12:09:48.431Z,67.10295370030029
2022-12-08T12:15:16.611Z,66.94885327535691
2022-12-08T12:20:25.880Z,67.26631299376501
2022-12-08T12:25:32.074Z,67.91839260447034
2022-12-08T12:30:52.361Z,67.88625238645776
2022-12-08T12:36:16.437Z,68.38172429025103
2022-12-08T12:41:25.491Z,68.33613940503761
2022-12-08T12:47:48.568Z,68.49233019335787
2022-12-08T12:54:20.748Z,68.2467230701113
2022-12-08T12:59:35.001Z,68.7445123263494
2022-12-08T13:04:41.224Z,68.46299442114439
2022-12-08T13:09:56.711Z,68.42001548192037
2022-12-08T13:15:05.657Z,68.31746420658911
2022-12-08T13:20:18.833Z,68.19331033339168
2022-12-08T13:26:28.994Z,68.4843600689388
2022-12-08T13:31:38.173Z,68.4052230395882
2022-12-08T13:37:00.347Z,68.34850594349513
2022-12-08T13:42:14.547Z,69.01349813740967
2022-12-08T13:47:34.213Z,68.50960752454522
2022-12-08T13:58:29.151Z,68.7059086424356
2022-12-08T14:04:04.314Z,68.83115354684452
2022-12-08T14:09:34.486Z,69.02226364450472
2022-12-08T14:15:01.186Z,69.04969823154856
2022-12-08T14:20:19.889Z,68.91106365666242
2022-12-08T14:25:35.362Z,68.82157107893066
2022-12-08T14:30:49.357Z,69.11377543521039
2022-12-08T14:35:56.528Z,69.49372017238606
2022-12-08T14:41:04.747Z,69.28889258956474
2022-12-08T14:46:22.008Z,69.70391046769527
2022-12-08T14:51:32.211Z,70.08511712239779
2022-12-08T14:56:41.410Z,70.53403161829999
2022-12-08T15:01:48.816Z,70.6242040545612
2022-12-08T15:06:55.845Z,70.63764686038456
2022-12-08T15:12:06.105Z,70.77867035110651
2022-12-08T15:17:41.239Z,70.81642848554235
2022-12-08T15:22:50.497Z,71.03050243551179
2022-12-08T15:27:56.699Z,71.18741877520486
2022-12-08T15:33:01.960Z,71.49568030498513
2022-12-08T15:38:08.280Z,71.95227448448628
2022-12-08T15:43:13.427Z,90.92909239151165
2022-12-08T15:48:19.666Z,79.59163152274547
2022-12-08T15:53:25.919Z,61.37606800629627
2022-12-08T15:58:53.059Z,65.89107090619113
2022-12-08T16:09:38.818Z,69.87739718266995
2022-12-08T16:20:20.113Z,70.52407231925139
2022-12-08T16:25:46.047Z,71.20409233990763
2022-12-08T16:31:16.660Z,71.73730341414335
2022-12-08T16:36:24.458Z,72.15839573648579
2022-12-08T16:41:29.657Z,72.71725900176666
2022-12-08T16:46:34.977Z,73.20175091829651
2022-12-08T16:51:42.185Z,73.36417490703147
2022-12-08T16:56:47.411Z,73.30397853080116
2022-12-08T17:01:52.641Z,73.33775031521385
2022-12-08T17:06:57.854Z,73.69395851681483
2022-12-08T17:12:04.335Z,73.8862406769536
2022-12-08T17:17:09.323Z,73.53485285866877
2022-12-08T17:22:14.606Z,73.7962697759852
2022-12-08T17:27:19.809Z,74.0696204289369
2022-12-08T17:32:25.128Z,74.38304356876709
2022-12-08T17:37:30.261Z,74.20799867229316
2022-12-08T17:42:35.526Z,74.16108342802178
2022-12-08T17:47:40.746Z,74.66883230911291
2022-12-08T17:52:49.960Z,75.03605690323676
2022-12-08T17:57:59.480Z,74.97903056011675
2022-12-08T18:03:04.493Z,75.28661900064868
2022-12-08T18:08:09.777Z,75.21834513055015
2022-12-08T18:13:14.914Z,75.24705375812039
2022-12-08T18:18:20.162Z,75.45124742252982
2022-12-08T18:23:25.431Z,75.22107573529263
2022-12-08T18:28:30.656Z,75.80304366372958
2022-12-08T18:33:35.900Z,75.70449968363994
2022-12-08T18:38:41.117Z,75.60157755448705
2022-12-08T18:43:46.347Z,75.4969094737886
2022-12-08T18:48:52.576Z,75.90675562533545
2022-12-08T18:53:58.803Z,76.07088119699455
2022-12-08T18:59:11.013Z,75.938459048485
2022-12-08T19:04:29.806Z,76.11736184124696
2022-12-08T19:09:35.466Z,75.9617645594949
2022-12-08T19:14:40.753Z,75.99141412183661
2022-12-08T19:19:45.973Z,76.26017112220411
2022-12-08T19:24:51.202Z,77.01801497973943
2022-12-08T19:29:56.482Z,76.98454368823687
2022-12-08T19:35:01.670Z,77.05101612406102
2022-12-08T19:40:08.227Z,76.86169227403332
2022-12-08T19:45:15.170Z,76.91307893286245
2022-12-08T19:50:21.367Z,76.90270209747592
2022-12-08T19:55:26.596Z,78.03261161471994
2022-12-08T20:00:32.821Z,78.48017430139382
2022-12-08T20:05:40.091Z,77.97895806920901
2022-12-08T20:10:48.298Z,78.36481595304065
2022-12-08T20:15:53.616Z,78.62350758218128
2022-12-08T20:20:16.209Z,92.05204636208335
2022-12-08T20:25:21.161Z,74.51550933896296
2022-12-08T20:30:26.364Z,76.51344160239536
2022-12-08T20:35:31.576Z,76.7635347026246
2022-12-08T20:40:41.885Z,77.76001526519482
2022-12-08T20:45:47.225Z,78.00353331652038
2022-12-08T20:50:52.681Z,78.81851570287515
2022-12-08T20:55:59.763Z,79.40806211953833
2022-12-08T21:01:08.954Z,79.70839854707569
2022-12-08T21:06:21.115Z,79.35575686922236
2022-12-08T21:11:28.393Z,80.20740880939893
2022-12-08T21:16:38.806Z,80.70612087018037
2022-12-08T21:21:45.832Z,81.25796073173852
2022-12-08T21:26:51.876Z,81.85634244416389
2022-12-08T21:31:58.220Z,81.06785312029606
2022-12-08T21:37:03.429Z,81.49697778049752
2022-12-08T21:42:08.614Z,82.14335974646373
2022-12-08T21:47:13.979Z,82.10580988357046
2022-12-08T21:52:19.072Z,82.46210828202447
2022-12-08T21:57:24.316Z,82.06666080348839
2022-12-08T22:02:29.913Z,81.98500823643381
2022-12-08T22:07:37.872Z,82.16496896554709
2022-12-08T22:12:43.237Z,82.3757857972735
2022-12-08T22:17:48.571Z,82.66707404164447
2022-12-08T22:22:59.451Z,83.23922675660154
2022-12-08T22:28:05.916Z,83.5060535847071
2022-12-08T22:33:10.936Z,83.16139711202244
2022-12-08T22:38:16.155Z,83.12982092946596
2022-12-08T22:43:21.460Z,83.0310446922088
2022-12-08T22:48:27.632Z,83.94373781681543
2022-12-08T22:53:33.066Z,83.90222487324347
2022-12-08T22:58:38.235Z,84.02502186090362
2022-12-08T23:03:43.679Z,84.24825486174505
2022-12-08T23:08:48.810Z,84.04489037872438
2022-12-08T23:13:55.119Z,83.64912103948905
2022-12-08T23:19:00.157Z,84.08277220213586
2022-12-08T23:24:05.319Z,83.8677258170251
2022-12-08T23:29:10.803Z,84.31593029699214
2022-12-08T23:34:15.895Z,84.33187453033224
2022-12-08T23:39:21.097Z,84.37142522369163
2022-12-08T23:44:27.226Z,84.55022671555466
2022-12-08T23:49:32.474Z,84.54282678490559
2022-12-08T23:54:37.785Z,85.03392378362953
2022-12-08T23:59:43.111Z,85.25415292220373
